createdAt,value
2023-04-03T00:01:24.020Z,3.15
2023-04-03T00:03:54.237Z,3.22
2023-04-03T00:06:22.827Z,3.05
2023-04-03T00:08:52.094Z,3.10
2023-04-03T00:11:21.063Z,3.33
2023-04-03T00:13:50.475Z,3.53
2023-04-03T00:16:18.683Z,3.42
2023-04-03T00:18:46.609Z,3.17
2023-04-03T00:21:15.647Z,3.17
2023-04-03T00:23:43.946Z,2.90
2023-04-03T00:26:12.192Z,2.60
2023-04-03T00:28:41.969Z,2.80
2023-04-03T00:31:11.788Z,3.00
2023-04-03T00:33:39.916Z,3.50
2023-04-03T00:36:10.150Z,3.15
2023-04-03T00:38:38.592Z,2.97
2023-04-03T00:41:07.439Z,3.05
2023-04-03T00:43:35.771Z,2.90
2023-04-03T00:46:03.918Z,3.28
2023-04-03T00:48:36.854Z,2.97
2023-04-03T00:51:06.024Z,3.55
2023-04-03T00:53:37.624Z,3.25
2023-04-03T00:56:11.289Z,4.05
2023-04-03T00:58:43.589Z,2.97
2023-04-03T01:01:16.410Z,2.78
2023-04-03T01:03:46.136Z,3.00
2023-04-03T01:06:17.378Z,2.83
2023-04-03T01:08:48.974Z,3.10
2023-04-03T01:11:17.169Z,3.00
2023-04-03T01:13:45.993Z,2.55
2023-04-03T01:16:14.948Z,3.42
2023-04-03T01:18:45.880Z,2.70
2023-04-03T01:21:53.505Z,3.13
2023-04-03T01:24:34.352Z,3.10
2023-04-03T01:27:06.012Z,3.25
2023-04-03T01:29:34.470Z,2.97
2023-04-03T01:32:05.486Z,2.90
2023-04-03T01:34:33.707Z,2.92
2023-04-03T01:37:02.792Z,3.67
2023-04-03T01:39:30.992Z,2.90
2023-04-03T01:42:00.184Z,2.83
2023-04-03T01:44:33.146Z,2.90
2023-04-03T01:47:01.860Z,3.63
2023-04-03T01:49:32.692Z,3.15
2023-04-03T01:52:00.955Z,3.03
2023-04-03T01:54:29.224Z,2.90
2023-04-03T01:56:57.920Z,3.30
2023-04-03T01:59:26.374Z,3.20
2023-04-03T02:01:54.901Z,3.22
2023-04-03T02:04:23.875Z,2.95
2023-04-03T02:06:53.558Z,3.30
2023-04-03T02:09:21.595Z,2.80
2023-04-03T02:11:49.832Z,3.25
2023-04-03T02:14:17.940Z,4.10
2023-04-03T02:16:46.339Z,3.65
2023-04-03T02:19:14.860Z,4.05
2023-04-03T02:21:43.227Z,3.47
2023-04-03T02:24:12.794Z,2.90
2023-04-03T02:26:41.485Z,3.35
2023-04-03T02:29:09.738Z,4.00
2023-04-03T02:31:37.771Z,3.75
2023-04-03T02:34:07.024Z,3.20
2023-04-03T02:36:37.114Z,3.33
2023-04-03T02:39:08.380Z,3.50
2023-04-03T02:41:38.599Z,3.53
2023-04-03T02:44:13.527Z,3.28
2023-04-03T02:46:41.884Z,3.47
2023-04-03T02:49:09.916Z,3.08
2023-04-03T02:51:38.629Z,3.20
2023-04-03T02:54:07.098Z,3.90
2023-04-03T02:56:39.003Z,3.67
2023-04-03T02:59:07.703Z,3.35
2023-04-03T03:01:38.072Z,3.20
2023-04-03T03:04:06.165Z,3.30
2023-04-03T03:06:34.439Z,3.50
2023-04-03T03:09:02.761Z,3.35
2023-04-03T03:11:31.033Z,3.70
2023-04-03T03:14:00.476Z,3.30
2023-04-03T03:16:29.007Z,3.10
2023-04-03T03:18:59.089Z,2.90
2023-04-03T03:21:28.152Z,3.28
2023-04-03T03:23:56.161Z,3.63
2023-04-03T03:26:24.813Z,3.53
2023-04-03T03:28:53.227Z,4.82
2023-04-03T03:31:22.736Z,3.35
2023-04-03T03:33:51.430Z,3.38
2023-04-03T03:36:20.694Z,3.15
2023-04-03T03:38:49.008Z,3.92
2023-04-03T03:41:17.136Z,3.78
2023-04-03T03:43:46.778Z,3.65
2023-04-03T03:46:16.665Z,3.50
2023-04-03T03:48:47.204Z,3.65
2023-04-03T03:51:15.463Z,3.10
2023-04-03T03:53:43.612Z,3.58
2023-04-03T03:56:16.208Z,3.90
2023-04-03T03:58:46.046Z,3.10
2023-04-03T04:01:15.174Z,3.35
2023-04-03T04:03:49.744Z,3.10
2023-04-03T04:06:22.593Z,3.53
2023-04-03T04:08:51.584Z,3.42
2023-04-03T04:11:20.126Z,3.60
2023-04-03T04:13:49.053Z,3.40
2023-04-03T04:16:19.858Z,2.88
2023-04-03T04:18:49.450Z,3.40
2023-04-03T04:21:17.744Z,3.10
2023-04-03T04:23:46.861Z,3.30
2023-04-03T04:26:16.463Z,3.55
2023-04-03T04:28:45.145Z,3.75
2023-04-03T04:31:13.378Z,2.75
2023-04-03T04:33:41.927Z,2.53
2023-04-03T04:36:15.880Z,3.65
2023-04-03T04:38:46.805Z,4.40
2023-04-03T04:41:15.706Z,3.85
2023-04-03T04:43:44.368Z,3.30
2023-04-03T04:46:13.781Z,3.75
2023-04-03T04:48:47.179Z,4.40
2023-04-03T04:51:17.935Z,3.80
2023-04-03T04:53:46.414Z,3.60
2023-04-03T04:56:17.440Z,4.53
2023-04-03T04:58:45.935Z,3.63
2023-04-03T05:01:14.122Z,3.70
2023-04-03T05:03:53.438Z,3.65
2023-04-03T05:06:23.210Z,3.30
2023-04-03T05:08:51.671Z,3.22
2023-04-03T05:11:21.269Z,3.15
2023-04-03T05:13:54.346Z,3.63
2023-04-03T05:16:24.204Z,3.50
2023-04-03T05:18:53.106Z,2.90
2023-04-03T05:21:27.100Z,3.10
2023-04-03T05:23:55.744Z,3.17
2023-04-03T05:26:24.168Z,3.30
2023-04-03T05:28:52.732Z,3.45
2023-04-03T05:31:22.396Z,3.72
2023-04-03T05:33:51.443Z,4.07
2023-04-03T05:36:20.417Z,3.58
2023-04-03T05:38:54.201Z,3.80
2023-04-03T05:41:22.803Z,3.97
2023-04-03T05:43:51.957Z,3.67
2023-04-03T05:46:23.393Z,4.30
2023-04-03T05:48:55.567Z,2.75
2023-04-03T05:51:30.634Z,3.88
2023-04-03T05:54:10.607Z,3.92
2023-04-03T05:56:38.700Z,3.70
2023-04-03T05:59:08.483Z,3.47
2023-04-03T06:01:37.110Z,3.13
2023-04-03T06:04:05.609Z,3.35
2023-04-03T06:06:49.425Z,4.10
2023-04-03T06:09:20.052Z,4.60
2023-04-03T06:11:48.085Z,3.55
2023-04-03T06:14:17.460Z,3.58
2023-04-03T06:16:45.956Z,3.70
2023-04-03T06:19:14.451Z,3.85
2023-04-03T06:21:48.182Z,3.15
2023-04-03T06:24:20.927Z,3.50
2023-04-03T06:26:49.906Z,3.70
2023-04-03T06:29:17.970Z,3.33
2023-04-03T06:31:46.426Z,3.72
2023-04-03T06:34:15.025Z,3.50
2023-04-03T06:36:44.240Z,3.70
2023-04-03T06:39:16.436Z,3.72
2023-04-03T06:41:46.699Z,3.15
2023-04-03T06:44:16.747Z,2.90
2023-04-03T06:46:46.445Z,3.20
2023-04-03T06:49:16.381Z,3.50
2023-04-03T06:51:44.991Z,3.22
2023-04-03T06:54:13.791Z,2.95
2023-04-03T06:56:48.737Z,3.45
2023-04-03T06:59:28.183Z,3.33
2023-04-03T07:02:04.112Z,3.40
2023-04-03T07:04:38.033Z,3.67
2023-04-03T07:07:18.181Z,3.22
2023-04-03T07:09:51.759Z,3.10
2023-04-03T07:12:23.557Z,3.53
2023-04-03T07:14:58.600Z,3.30
2023-04-03T07:17:34.577Z,3.53
2023-04-03T07:20:09.013Z,3.00
2023-04-03T07:22:41.323Z,3.85
2023-04-03T07:25:11.967Z,3.30
2023-04-03T07:27:40.915Z,3.72
2023-04-03T07:30:13.625Z,3.30
2023-04-03T07:32:42.471Z,4.00
2023-04-03T07:35:11.521Z,4.20
2023-04-03T07:37:40.077Z,3.78
2023-04-03T07:40:09.823Z,3.35
2023-04-03T07:42:39.507Z,3.55
2023-04-03T07:45:09.852Z,4.45
2023-04-03T07:47:40.812Z,4.68
2023-04-03T07:50:10.831Z,4.30
2023-04-03T07:52:40.375Z,4.10
2023-04-03T07:55:12.336Z,4.63
2023-04-03T07:57:41.585Z,4.05
2023-04-03T08:00:11.401Z,4.22
2023-04-03T08:02:51.694Z,4.20
2023-04-03T08:05:22.475Z,4.13
2023-04-03T08:07:56.597Z,4.82
2023-04-03T08:10:35.446Z,4.38
2023-04-03T08:13:11.663Z,3.65
2023-04-03T08:15:47.545Z,4.30
2023-04-03T08:18:25.462Z,4.47
2023-04-03T08:21:00.218Z,3.65
2023-04-03T08:23:35.306Z,3.60
2023-04-03T08:26:13.743Z,4.65
2023-04-03T08:28:47.143Z,4.32
2023-04-03T08:31:25.471Z,4.47
2023-04-03T08:33:57.128Z,3.80
2023-04-03T08:36:27.535Z,3.92
2023-04-03T08:38:57.697Z,4.25
2023-04-03T08:41:33.848Z,4.28
2023-04-03T08:44:23.716Z,4.85
2023-04-03T08:47:04.482Z,4.90
2023-04-03T08:49:38.836Z,4.88
2023-04-03T08:52:13.765Z,4.40
2023-04-03T08:54:52.981Z,4.32
2023-04-03T08:57:30.636Z,4.78
2023-04-03T09:00:04.067Z,4.20
2023-04-03T09:02:36.575Z,4.05
2023-04-03T09:05:15.184Z,4.63
2023-04-03T09:07:50.024Z,4.22
2023-04-03T09:10:23.928Z,4.85
2023-04-03T09:13:01.091Z,4.82
2023-04-03T09:15:38.536Z,3.85
2023-04-03T09:18:14.958Z,4.97
2023-04-03T09:20:49.365Z,4.45
2023-04-03T09:23:42.435Z,3.88
2023-04-03T09:26:16.482Z,4.68
2023-04-03T09:28:50.051Z,4.47
2023-04-03T09:31:23.735Z,3.67
2023-04-03T09:33:54.690Z,4.22
2023-04-03T09:36:46.844Z,3.88
2023-04-03T09:39:17.927Z,3.90
2023-04-03T09:41:59.684Z,4.53
2023-04-03T09:44:29.580Z,3.83
2023-04-03T09:46:58.196Z,3.33
2023-04-03T09:49:26.691Z,4.20
2023-04-03T09:51:56.706Z,3.55
2023-04-03T09:54:36.960Z,3.90
2023-04-03T09:57:11.385Z,4.38
2023-04-03T09:59:45.517Z,3.60
2023-04-03T10:02:33.033Z,4.50
2023-04-03T10:05:09.375Z,4.10
2023-04-03T10:07:44.455Z,3.50
2023-04-03T10:10:23.965Z,4.15
2023-04-03T10:13:06.919Z,4.15
2023-04-03T10:15:42.370Z,3.25
2023-04-03T10:18:30.733Z,3.55
2023-04-03T10:21:06.122Z,3.20
2023-04-03T10:23:44.431Z,3.58
2023-04-03T10:26:19.218Z,3.83
2023-04-03T10:28:53.182Z,3.35
2023-04-03T10:31:28.564Z,3.00
2023-04-03T10:34:07.083Z,3.97
2023-04-03T10:36:43.134Z,3.90
2023-04-03T10:39:29.607Z,3.33
2023-04-03T10:42:16.729Z,3.65
2023-04-03T10:44:59.820Z,4.15
2023-04-03T10:47:39.413Z,3.45
2023-04-03T10:50:24.816Z,3.55
2023-04-03T10:52:59.599Z,3.35
2023-04-03T10:55:38.014Z,3.95
2023-04-03T10:58:08.512Z,3.88
2023-04-03T11:00:41.830Z,3.17
2023-04-03T11:03:16.130Z,3.50
2023-04-03T11:05:47.316Z,3.75
2023-04-03T11:08:27.524Z,3.45
2023-04-03T11:11:00.321Z,3.60
2023-04-03T11:13:34.712Z,3.17
2023-04-03T11:16:04.973Z,4.15
2023-04-03T11:18:40.158Z,3.45
2023-04-03T11:21:13.949Z,3.10
2023-04-03T11:23:49.544Z,3.63
2023-04-03T11:26:23.413Z,2.60
2023-04-03T11:28:55.452Z,3.35
2023-04-03T11:31:40.453Z,3.92
2023-04-03T11:34:22.185Z,2.78
2023-04-03T11:36:54.763Z,3.88
2023-04-03T11:39:27.296Z,3.90
2023-04-03T11:42:06.879Z,3.20
2023-04-03T11:44:40.972Z,3.25
2023-04-03T11:47:10.588Z,3.00
2023-04-03T11:49:59.225Z,3.20
2023-04-03T11:53:02.542Z,3.03
2023-04-03T11:56:16.210Z,2.70
2023-04-03T11:59:23.512Z,3.03
2023-04-03T12:01:53.157Z,2.95
2023-04-03T12:04:23.648Z,3.22
2023-04-03T12:07:21.027Z,3.22
2023-04-03T12:10:30.977Z,3.60
2023-04-03T12:13:05.018Z,2.92
2023-04-03T12:15:55.804Z,3.20
2023-04-03T12:19:01.392Z,3.00
2023-04-03T12:22:13.282Z,3.35
2023-04-03T12:24:43.632Z,3.22
2023-04-03T12:27:36.685Z,3.65
2023-04-03T12:30:16.765Z,2.85
2023-04-03T12:33:13.100Z,4.22
2023-04-03T12:35:51.951Z,4.03
2023-04-03T12:38:54.906Z,3.78
2023-04-03T12:41:34.683Z,3.50
2023-04-03T12:44:27.151Z,2.75
2023-04-03T12:46:56.277Z,2.45
2023-04-03T12:49:37.342Z,2.90
2023-04-03T12:52:22.123Z,2.38
2023-04-03T12:54:52.557Z,2.30
2023-04-03T12:57:22.386Z,2.45
2023-04-03T12:59:50.807Z,2.45
2023-04-03T13:02:25.517Z,2.72
2023-04-03T13:04:58.943Z,2.40
2023-04-03T13:07:32.729Z,3.10
2023-04-03T13:10:04.069Z,2.47
2023-04-03T13:12:32.675Z,2.20
2023-04-03T13:15:05.490Z,2.80
2023-04-03T13:17:35.164Z,2.67
2023-04-03T13:20:19.891Z,2.50
2023-04-03T13:22:57.640Z,2.42
2023-04-03T13:25:30.418Z,2.10
2023-04-03T13:28:10.565Z,2.78
2023-04-03T13:30:42.761Z,2.83
2023-04-03T13:33:24.019Z,2.90
2023-04-03T13:36:02.467Z,2.10
2023-04-03T13:38:34.592Z,2.25
2023-04-03T13:41:05.434Z,2.10
2023-04-03T13:43:36.611Z,2.00
2023-04-03T13:46:08.256Z,2.40
2023-04-03T13:48:42.060Z,2.00
2023-04-03T13:51:23.679Z,2.60
2023-04-03T13:53:54.731Z,2.15
2023-04-03T13:56:31.890Z,2.08
2023-04-03T13:59:04.895Z,2.65
2023-04-03T14:01:45.597Z,2.10
2023-04-03T14:04:19.586Z,2.85
2023-04-03T14:06:49.958Z,3.20
2023-04-03T14:09:19.619Z,3.20
2023-04-03T14:11:49.447Z,2.08
2023-04-03T14:14:20.384Z,3.22
2023-04-03T14:16:53.368Z,2.05
2023-04-03T14:19:24.037Z,2.63
2023-04-03T14:21:55.477Z,3.03
2023-04-03T14:24:24.350Z,1.77
2023-04-03T14:26:54.604Z,2.47
2023-04-03T14:29:24.197Z,2.45
2023-04-03T14:32:03.708Z,2.85
2023-04-03T14:34:40.192Z,2.65
2023-04-03T14:37:12.809Z,2.80
2023-04-03T14:39:42.024Z,3.22
2023-04-03T14:42:16.403Z,3.20
2023-04-03T14:44:44.872Z,2.40
2023-04-03T14:47:27.422Z,2.45
2023-04-03T14:49:59.602Z,2.70
2023-04-03T14:52:30.964Z,2.97
2023-04-03T14:55:00.218Z,2.70
2023-04-03T14:57:30.754Z,2.75
2023-04-03T14:59:59.330Z,2.05
2023-04-03T15:02:30.958Z,2.30
2023-04-03T15:05:00.617Z,3.15
2023-04-03T15:07:32.970Z,3.83
2023-04-03T15:10:02.444Z,3.25
2023-04-03T15:12:30.558Z,2.72
2023-04-03T15:15:02.079Z,2.70
2023-04-03T15:17:32.021Z,1.73
2023-04-03T15:20:00.744Z,3.10
2023-04-03T15:22:30.524Z,2.50
2023-04-03T15:24:58.629Z,2.63
2023-04-03T15:27:26.930Z,2.70
2023-04-03T15:29:55.113Z,2.40
2023-04-03T15:32:23.182Z,2.85
2023-04-03T15:34:53.686Z,3.30
2023-04-03T15:37:27.037Z,2.90
2023-04-03T15:39:56.804Z,3.30
2023-04-03T15:42:24.951Z,3.42
2023-04-03T15:44:53.094Z,3.45
2023-04-03T15:47:21.302Z,2.60
2023-04-03T15:49:49.834Z,2.67
2023-04-03T15:52:18.034Z,3.63
2023-04-03T15:54:46.178Z,2.67
2023-04-03T15:57:15.841Z,2.40
2023-04-03T15:59:44.048Z,2.65
2023-04-03T16:02:15.030Z,2.83
2023-04-03T16:04:43.377Z,2.80
2023-04-03T16:07:11.995Z,2.90
2023-04-03T16:09:40.196Z,2.42
2023-04-03T16:12:08.485Z,2.30
2023-04-03T16:14:38.050Z,2.20
2023-04-03T16:17:06.352Z,2.33
2023-04-03T16:19:34.605Z,2.60
2023-04-03T16:22:02.848Z,2.60
2023-04-03T16:24:31.555Z,3.05
2023-04-03T16:26:59.820Z,2.25
2023-04-03T16:29:27.963Z,2.58
2023-04-03T16:32:00.532Z,2.17
2023-04-03T16:34:31.134Z,3.78
2023-04-03T16:36:59.828Z,6.25
2023-04-03T16:39:28.282Z,2.58
2023-04-03T16:41:56.417Z,4.15
2023-04-03T16:44:24.617Z,2.90
2023-04-03T16:46:52.785Z,2.95
2023-04-03T16:49:22.624Z,3.75
2023-04-03T16:51:51.320Z,3.33
2023-04-03T16:54:19.614Z,2.30
2023-04-03T16:56:47.712Z,2.50
2023-04-03T16:59:16.038Z,2.40
2023-04-03T17:01:44.367Z,2.13
2023-04-03T17:04:13.757Z,2.72
2023-04-03T17:06:43.549Z,2.53
2023-04-03T17:09:12.762Z,2.20
2023-04-03T17:11:41.101Z,2.10
2023-04-03T17:14:09.315Z,3.47
2023-04-03T17:16:39.498Z,3.10
2023-04-03T17:19:08.109Z,2.55
2023-04-03T17:21:36.423Z,2.10
2023-04-03T17:24:09.686Z,2.45
2023-04-03T17:26:38.667Z,3.30
2023-04-03T17:29:06.985Z,3.40
2023-04-03T17:31:36.100Z,3.47
2023-04-03T17:34:04.522Z,3.42
2023-04-03T17:36:34.250Z,3.42
2023-04-03T17:39:02.471Z,3.00
2023-04-03T17:41:32.100Z,3.00
2023-04-03T17:44:00.620Z,4.05
2023-04-03T17:46:29.913Z,3.50
2023-04-03T17:49:00.430Z,2.80
2023-04-03T17:51:34.385Z,4.00
2023-04-03T17:54:03.202Z,3.92
2023-04-03T17:56:32.821Z,3.55
2023-04-03T17:59:01.385Z,2.85
2023-04-03T18:01:31.775Z,3.63
2023-04-03T18:04:03.034Z,3.22
2023-04-03T18:06:35.481Z,3.10
2023-04-03T18:09:08.724Z,3.00
2023-04-03T18:11:39.260Z,4.05
2023-04-03T18:14:09.736Z,3.55
2023-04-03T18:16:38.121Z,3.70
2023-04-03T18:19:22.008Z,3.75
2023-04-03T18:21:53.481Z,3.03
2023-04-03T18:24:23.697Z,3.63
2023-04-03T18:26:57.237Z,4.53
2023-04-03T18:29:26.374Z,2.80
2023-04-03T18:31:57.187Z,4.05
2023-04-03T18:34:25.783Z,4.50
2023-04-03T18:36:53.894Z,4.18
2023-04-03T18:39:24.031Z,4.80
2023-04-03T18:41:54.893Z,3.10
2023-04-03T18:44:26.263Z,3.50
2023-04-03T18:46:57.078Z,3.20
2023-04-03T18:49:28.582Z,3.40
2023-04-03T18:51:57.025Z,3.65
2023-04-03T18:54:25.482Z,2.60
2023-04-03T18:56:55.220Z,3.20
2023-04-03T18:59:23.702Z,3.85
2023-04-03T19:01:52.289Z,3.72
2023-04-03T19:04:20.664Z,2.92
2023-04-03T19:06:48.987Z,3.00
2023-04-03T19:09:17.582Z,3.03
2023-04-03T19:11:45.781Z,3.20
2023-04-03T19:14:17.068Z,3.63
2023-04-03T19:16:46.425Z,4.70
2023-04-03T19:19:14.813Z,2.90
2023-04-03T19:21:43.084Z,2.97
2023-04-03T19:24:12.710Z,4.15
2023-04-03T19:26:41.732Z,3.30
2023-04-03T19:29:10.532Z,3.10
2023-04-03T19:31:40.247Z,4.30
2023-04-03T19:34:09.336Z,6.03
2023-04-03T19:36:38.496Z,3.28
2023-04-03T19:39:07.792Z,3.20
2023-04-03T19:41:38.193Z,4.93
2023-04-03T19:44:07.814Z,3.47
2023-04-03T19:46:36.643Z,3.15
2023-04-03T19:49:06.596Z,4.18
2023-04-03T19:51:35.316Z,5.07
2023-04-03T19:54:03.451Z,3.78
2023-04-03T19:56:32.482Z,2.97
2023-04-03T19:59:00.718Z,3.55
2023-04-03T20:01:30.929Z,3.53
2023-04-03T20:03:59.500Z,3.22
2023-04-03T20:06:29.089Z,3.55
2023-04-03T20:08:57.785Z,3.78
2023-04-03T20:11:27.804Z,4.32
2023-04-03T20:13:56.709Z,3.00
2023-04-03T20:16:26.086Z,2.78
2023-04-03T20:18:56.342Z,3.90
2023-04-03T20:21:30.802Z,2.90
2023-04-03T20:23:59.489Z,2.70
2023-04-03T20:26:29.784Z,3.00
2023-04-03T20:29:00.082Z,2.47
2023-04-03T20:31:29.756Z,2.42
2023-04-03T20:33:58.206Z,2.70
2023-04-03T20:36:28.463Z,2.10
2023-04-03T20:38:58.060Z,2.53
2023-04-03T20:41:26.326Z,2.30
2023-04-03T20:43:54.473Z,2.33
2023-04-03T20:46:25.568Z,3.22
2023-04-03T20:48:55.007Z,2.65
2023-04-03T20:51:23.586Z,2.72
2023-04-03T20:53:52.052Z,2.38
2023-04-03T20:56:21.691Z,2.67
2023-04-03T20:58:50.317Z,2.60
2023-04-03T21:01:20.283Z,3.13
2023-04-03T21:03:50.112Z,2.42
2023-04-03T21:06:56.521Z,2.70
2023-04-03T21:10:02.381Z,2.95
2023-04-03T21:13:07.965Z,2.80
2023-04-03T21:15:48.411Z,2.70
2023-04-03T21:18:50.257Z,3.15
2023-04-03T21:21:21.001Z,2.47
2023-04-03T21:23:49.948Z,1.70
2023-04-03T21:26:19.506Z,2.60
2023-04-03T21:28:47.816Z,2.28
2023-04-03T21:31:16.056Z,2.25
2023-04-03T21:33:46.542Z,3.42
2023-04-03T21:36:15.389Z,2.78
2023-04-03T21:38:46.228Z,2.75
2023-04-03T21:41:14.575Z,3.05
2023-04-03T21:43:42.858Z,2.35
2023-04-03T21:46:11.382Z,2.67
2023-04-03T21:48:39.611Z,2.70
2023-04-03T21:51:09.276Z,2.80
2023-04-03T21:53:38.670Z,2.35
2023-04-03T21:56:07.853Z,2.08
2023-04-03T21:58:35.949Z,1.80
2023-04-03T22:01:11.837Z,2.22
2023-04-03T22:03:40.484Z,2.40
2023-04-03T22:06:12.343Z,2.22
2023-04-03T22:08:41.979Z,1.60
2023-04-03T22:11:12.904Z,1.83
2023-04-03T22:13:41.806Z,2.65
2023-04-03T22:16:11.331Z,3.08
2023-04-03T22:18:39.843Z,2.08
2023-04-03T22:21:09.595Z,2.20
2023-04-03T22:23:37.770Z,2.20
2023-04-03T22:26:07.549Z,2.55
2023-04-03T22:28:38.446Z,2.20
2023-04-03T22:31:08.622Z,2.15
2023-04-03T22:33:37.722Z,1.80
2023-04-03T22:36:07.428Z,2.42
2023-04-03T22:38:37.538Z,2.38
2023-04-03T22:41:07.424Z,2.17
2023-04-03T22:43:37.411Z,1.83
2023-04-03T22:46:06.888Z,2.22
2023-04-03T22:48:35.361Z,2.03
2023-04-03T22:51:07.450Z,2.10
2023-04-03T22:53:37.728Z,1.85
2023-04-03T22:56:08.745Z,1.85
2023-04-03T22:59:02.000Z,1.50
2023-04-03T23:01:30.430Z,2.10
2023-04-03T23:03:58.645Z,2.08
2023-04-03T23:06:27.147Z,1.80
2023-04-03T23:08:56.646Z,1.45
2023-04-03T23:11:24.884Z,1.92
2023-04-03T23:13:53.080Z,1.67
2023-04-03T23:16:21.606Z,1.65
2023-04-03T23:18:50.024Z,1.90
2023-04-03T23:21:18.379Z,1.60
2023-04-03T23:23:46.737Z,1.88
2023-04-03T23:26:16.422Z,1.85
2023-04-03T23:28:44.952Z,1.88
2023-04-03T23:31:13.830Z,1.65
2023-04-03T23:33:43.999Z,1.45
2023-04-03T23:36:15.818Z,2.13
2023-04-03T23:38:44.156Z,1.98
2023-04-03T23:41:12.961Z,1.92
2023-04-03T23:43:43.378Z,1.70
2023-04-03T23:46:11.559Z,1.73
2023-04-03T23:48:39.961Z,1.70
2023-04-03T23:51:08.355Z,1.85
2023-04-03T23:53:36.791Z,1.35
2023-04-03T23:56:09.711Z,2.10
2023-04-03T23:58:38.210Z,2.00
